Time;durP1;ratioP1;P1;durP2;ratioP2;P2;SDS_P1;SDS_P2;PMS_P1;PMS_P2;Temp;Humidity;BMP_temperature;BMP_pressure;BME280_temperature;BME280_humidity;BME280_pressure;Samples;Min_cycle;Max_cycle;Signal;HPM_P1;HPM_P2
2023/02/06 00:00:05;;;;;;;11.43;7.07;;;2.60;99.20;;;;;;5002898;28;20242;-76
2023/02/06 00:02:33;;;;;;;9.27;7.15;;;2.60;99.20;;;;;;5012707;28;20222;-79
2023/02/06 00:05:00;;;;;;;11.10;7.78;;;2.60;99.20;;;;;;5013448;28;20222;-77
2023/02/06 00:07:27;;;;;;;9.65;6.90;;;2.60;99.10;;;;;;5013747;28;20226;-76
2023/02/06 00:09:56;;;;;;;13.80;7.07;;;2.60;99.20;;;;;;5013185;28;20266;-79
2023/02/06 00:12:23;;;;;;;10.65;7.07;;;2.60;99.10;;;;;;5013666;28;20257;-77
2023/02/06 00:14:50;;;;;;;7.93;7.10;;;2.60;99.20;;;;;;5012854;28;20229;-76
2023/02/06 00:17:17;;;;;;;9.63;7.15;;;2.60;99.20;;;;;;5012710;28;20664;-76
2023/02/06 00:19:49;;;;;;;9.57;6.45;;;2.60;99.30;;;;;;5013405;28;20233;-79
2023/02/06 00:22:16;;;;;;;10.23;7.82;;;2.60;99.30;;;;;;5013201;28;20217;-79
2023/02/06 00:24:44;;;;;;;11.57;8.20;;;2.60;99.30;;;;;;5003229;28;20236;-79
2023/02/06 00:27:11;;;;;;;11.52;8.95;;;2.60;99.30;;;;;;5012251;28;20218;-76
2023/02/06 00:29:38;;;;;;;8.93;7.57;;;2.60;99.30;;;;;;5013230;28;20303;-76
2023/02/06 00:32:05;;;;;;;16.50;11.48;;;2.60;99.30;;;;;;5012579;28;20684;-76
2023/02/06 00:34:32;;;;;;;11.15;9.98;;;2.60;99.30;;;;;;5013072;28;20225;-79
2023/02/06 00:37:01;;;;;;;13.00;9.98;;;2.50;99.30;;;;;;5012834;28;20668;-76
2023/02/06 00:39:28;;;;;;;11.18;8.95;;;2.60;99.30;;;;;;5012943;28;20245;-79
2023/02/06 00:41:55;;;;;;;9.80;7.10;;;2.50;99.30;;;;;;5013415;28;20364;-76
2023/02/06 00:44:22;;;;;;;9.70;7.18;;;2.60;99.30;;;;;;5012622;28;20285;-76
2023/02/06 00:46:50;;;;;;;12.77;8.50;;;2.50;99.30;;;;;;5013719;28;20581;-79
2023/02/06 00:49:17;;;;;;;13.20;8.40;;;2.50;99.40;;;;;;5012769;28;20303;-79
2023/02/06 00:51:44;;;;;;;10.70;8.00;;;2.50;99.40;;;;;;5013080;28;20312;-76
2023/02/06 00:54:12;;;;;;;10.85;8.10;;;2.50;99.40;;;;;;5012231;28;20656;-76
2023/02/06 00:56:39;;;;;;;9.00;8.10;;;2.40;99.50;;;;;;5013105;28;20283;-79
2023/02/06 00:59:06;;;;;;;10.15;7.80;;;2.40;99.60;;;;;;5012504;28;20603;-77
2023/02/06 01:01:36;;;;;;;12.45;9.02;;;2.40;99.70;;;;;;5012668;28;20233;-76
2023/02/06 01:04:04;;;;;;;9.57;8.23;;;2.40;99.70;;;;;;5012653;28;20238;-78
2023/02/06 01:06:30;;;;;;;11.55;9.75;;;2.40;99.80;;;;;;5013183;28;20229;-75
2023/02/06 01:08:58;;;;;;;10.43;8.60;;;2.40;99.80;;;;;;5012398;28;20226;-75
2023/02/06 01:11:26;;;;;;;10.70;8.98;;;2.40;99.90;;;;;;5012530;28;20304;-76
2023/02/06 01:13:53;;;;;;;10.85;8.73;;;2.40;99.90;;;;;;5012069;28;20743;-76
2023/02/06 01:16:24;;;;;;;11.90;9.52;;;2.40;99.90;;;;;;5011141;28;20226;-75
2023/02/06 01:18:51;;;;;;;11.32;8.27;;;2.40;99.90;;;;;;5012637;28;20267;-79
2023/02/06 01:21:21;;;;;;;12.57;9.60;;;2.40;99.90;;;;;;5011545;28;20242;-78
2023/02/06 01:23:51;;;;;;;12.95;9.63;;;2.40;99.90;;;;;;5012166;28;20226;-76
2023/02/06 01:26:21;;;;;;;11.63;9.85;;;2.40;99.90;;;;;;5009395;28;20730;-78
2023/02/06 01:28:50;;;;;;;12.00;9.45;;;2.30;99.90;;;;;;5013049;28;20233;-79
2023/02/06 01:31:19;;;;;;;14.35;10.35;;;2.30;99.90;;;;;;5011812;28;20237;-76
2023/02/06 01:33:47;;;;;;;11.93;10.15;;;2.30;99.90;;;;;;5011965;28;20225;-79
2023/02/06 01:36:15;;;;;;;12.75;10.93;;;2.30;99.90;;;;;;5012089;28;20265;-78
2023/02/06 01:38:43;;;;;;;13.45;10.48;;;2.30;99.90;;;;;;5012779;28;20229;-75
2023/02/06 01:41:13;;;;;;;11.23;9.90;;;2.30;99.90;;;;;;5012301;28;20225;-77
2023/02/06 01:43:42;;;;;;;15.43;10.10;;;2.30;99.90;;;;;;5012446;28;20222;-77
2023/02/06 01:46:11;;;;;;;10.45;9.35;;;2.30;99.90;;;;;;5013619;28;20218;-76
2023/02/06 01:48:41;;;;;;;12.02;9.68;;;2.30;99.90;;;;;;5016128;28;20287;-75
2023/02/06 01:51:14;;;;;;;10.63;9.35;;;2.30;99.90;;;;;;5015293;28;20309;-76
2023/02/06 01:53:43;;;;;;;11.52;9.93;;;2.20;99.90;;;;;;5008009;28;20252;-79
2023/02/06 01:56:11;;;;;;;11.85;9.23;;;2.20;99.90;;;;;;5015870;28;20545;-78
2023/02/06 01:58:42;;;;;;;13.20;8.98;;;2.20;99.90;;;;;;5016439;28;20303;-78
2023/02/06 02:01:11;;;;;;;9.60;7.55;;;2.20;99.90;;;;;;5015735;28;20226;-78
2023/02/06 02:03:42;;;;;;;11.13;8.65;;;2.30;99.90;;;;;;5015244;28;20226;-76
2023/02/06 02:06:14;;;;;;;14.05;9.32;;;2.20;99.90;;;;;;5016113;28;20229;-78
2023/02/06 02:08:43;;;;;;;9.15;8.20;;;2.20;99.90;;;;;;5015710;28;20222;-78
2023/02/06 02:11:21;;;;;;;12.73;8.32;;;2.20;99.90;;;;;;5015763;28;20234;-79
2023/02/06 02:13:51;;;;;;;10.45;8.52;;;2.20;99.90;;;;;;5015771;28;20218;-76
2023/02/06 02:16:29;;;;;;;8.95;8.02;;;2.20;99.90;;;;;;5015445;28;20238;-76
2023/02/06 02:19:20;;;;;;;10.30;7.82;;;2.20;99.90;;;;;;5014354;28;20222;-76
2023/02/06 02:22:17;;;;;;;10.50;9.27;;;2.20;99.90;;;;;;5014158;28;20296;-76
2023/02/06 02:25:19;;;;;;;9.77;8.75;;;2.10;99.90;;;;;;5015697;28;20598;-79
2023/02/06 02:28:11;;;;;;;11.00;8.32;;;2.10;99.90;;;;;;5015828;28;20684;-79
2023/02/06 02:31:01;;;;;;;10.73;7.57;;;2.10;99.90;;;;;;5014699;28;20226;-79
2023/02/06 02:33:46;;;;;;;11.70;8.98;;;2.10;99.90;;;;;;4991166;28;20273;-76
2023/02/06 02:36:23;;;;;;;9.48;8.48;;;2.00;99.90;;;;;;4915958;28;20237;-79
2023/02/06 02:38:59;;;;;;;9.32;8.07;;;2.00;99.90;;;;;;4915684;28;20540;-76
2023/02/06 02:41:31;;;;;;;10.80;6.90;;;2.00;99.90;;;;;;4945668;28;20233;-80
2023/02/06 02:44:06;;;;;;;10.07;9.02;;;2.00;99.90;;;;;;4915948;28;20237;-78
2023/02/06 02:46:35;;;;;;;9.27;8.30;;;2.00;99.90;;;;;;4943077;28;20564;-78
2023/02/06 02:49:06;;;;;;;8.45;7.45;;;2.00;99.90;;;;;;4915639;28;20226;-79
2023/02/06 02:51:36;;;;;;;8.00;7.20;;;2.00;99.90;;;;;;4915211;28;20291;-76
2023/02/06 02:54:04;;;;;;;8.68;7.43;;;2.00;99.90;;;;;;4915535;28;20570;-79
2023/02/06 02:56:32;;;;;;;7.90;7.13;;;2.10;99.90;;;;;;4915056;28;20272;-79
2023/02/06 02:59:03;;;;;;;7.50;6.75;;;2.10;99.90;;;;;;4915656;28;20249;-79
2023/02/06 03:01:39;;;;;;;10.18;8.05;;;2.10;99.90;;;;;;4915214;28;20676;-79
2023/02/06 03:04:12;;;;;;;9.02;7.03;;;2.10;99.90;;;;;;4915408;28;20225;-77
2023/02/06 03:07:06;;;;;;;10.65;7.40;;;2.10;99.90;;;;;;4914731;28;20226;-77
2023/02/06 03:09:44;;;;;;;12.27;8.20;;;2.20;99.90;;;;;;4914874;28;20232;-75
2023/02/06 03:12:18;;;;;;;8.57;6.20;;;2.20;99.90;;;;;;4915667;28;20634;-76
2023/02/06 03:14:50;;;;;;;10.65;7.45;;;2.20;99.90;;;;;;4915311;28;20579;-76
2023/02/06 03:17:24;;;;;;;13.63;8.35;;;2.20;99.90;;;;;;4915784;28;20249;-79
2023/02/06 03:19:56;;;;;;;9.52;8.15;;;2.20;99.90;;;;;;4914999;28;20252;-78
2023/02/06 03:22:28;;;;;;;9.43;7.95;;;2.10;99.90;;;;;;4915283;28;20234;-76
2023/02/06 03:24:58;;;;;;;9.98;7.95;;;2.20;99.90;;;;;;4988099;28;20562;-79
2023/02/06 03:27:26;;;;;;;7.30;6.38;;;2.10;99.90;;;;;;4974801;28;20739;-78
2023/02/06 03:29:56;;;;;;;9.45;7.70;;;2.20;99.90;;;;;;5013840;28;20234;-79
2023/02/06 03:32:30;;;;;;;10.68;7.97;;;2.10;99.90;;;;;;5014342;28;20253;-77
2023/02/06 03:35:03;;;;;;;11.50;7.45;;;2.20;99.90;;;;;;5013454;28;20233;-76
2023/02/06 03:37:34;;;;;;;9.50;8.35;;;2.20;99.90;;;;;;4915230;28;20225;-78
2023/02/06 03:40:02;;;;;;;8.27;6.75;;;2.20;99.90;;;;;;4912109;28;20240;-76
2023/02/06 03:42:31;;;;;;;10.98;7.20;;;2.20;99.90;;;;;;4915222;28;20237;-76
2023/02/06 03:45:06;;;;;;;9.45;6.70;;;2.20;99.90;;;;;;4914432;28;20295;-79
2023/02/06 03:47:36;;;;;;;9.07;6.60;;;2.20;99.80;;;;;;4914776;28;20276;-75
2023/02/06 03:50:04;;;;;;;8.40;5.95;;;2.30;99.90;;;;;;4913806;28;20240;-78
2023/02/06 03:52:38;;;;;;;7.28;6.57;;;2.20;99.80;;;;;;4914696;28;20241;-79
2023/02/06 03:55:09;;;;;;;10.27;7.00;;;2.20;99.70;;;;;;4914273;28;20237;-75
2023/02/06 03:57:37;;;;;;;8.35;6.07;;;2.30;99.80;;;;;;4914553;28;20617;-78
2023/02/06 04:00:06;;;;;;;7.00;6.22;;;2.30;99.50;;;;;;4914064;28;20229;-76
2023/02/06 04:02:34;;;;;;;7.55;6.40;;;2.40;99.50;;;;;;4914107;28;20233;-76
2023/02/06 04:05:03;;;;;;;8.23;7.22;;;2.40;99.40;;;;;;4904546;28;20257;-78
2023/02/06 04:07:35;;;;;;;9.48;6.80;;;2.40;99.20;;;;;;4914397;28;20679;-78
2023/02/06 04:10:02;;;;;;;9.18;6.25;;;2.50;99.30;;;;;;4913588;28;20633;-76
2023/02/06 04:12:30;;;;;;;6.65;5.15;;;2.50;99.10;;;;;;4914577;28;20229;-76
2023/02/06 04:14:57;;;;;;;7.55;6.13;;;2.50;99.10;;;;;;4913307;28;20226;-75
2023/02/06 04:17:28;;;;;;;6.88;5.50;;;2.50;99.00;;;;;;4946479;28;20248;-78
2023/02/06 04:19:55;;;;;;;6.75;6.15;;;2.60;99.10;;;;;;4913574;28;20260;-76
2023/02/06 04:22:22;;;;;;;6.95;5.20;;;2.60;99.10;;;;;;4914754;28;20638;-75
2023/02/06 04:24:51;;;;;;;6.32;5.47;;;2.60;99.20;;;;;;4914235;28;20581;-75
2023/02/06 04:27:18;;;;;;;6.28;5.68;;;2.60;99.10;;;;;;4913790;28;20288;-75
2023/02/06 04:29:45;;;;;;;5.72;5.22;;;2.60;99.30;;;;;;4914241;28;20329;-78
2023/02/06 04:32:12;;;;;;;7.90;6.10;;;2.60;99.30;;;;;;4913866;28;20233;-76
2023/02/06 04:34:40;;;;;;;7.60;6.90;;;2.70;99.40;;;;;;4914105;28;20234;-78
2023/02/06 04:37:12;;;;;;;7.45;5.35;;;2.70;99.50;;;;;;4904919;28;20228;-76
2023/02/06 04:39:54;;;;;;;5.43;4.93;;;2.70;99.70;;;;;;4914600;28;20239;-76
2023/02/06 04:42:22;;;;;;;5.65;5.00;;;2.70;99.90;;;;;;4913645;28;20368;-76
2023/02/06 04:44:50;;;;;;;7.18;5.88;;;2.70;99.90;;;;;;4950227;28;20565;-76
2023/02/06 04:47:17;;;;;;;10.50;6.78;;;2.70;99.90;;;;;;5002512;28;20222;-76
2023/02/06 04:49:45;;;;;;;9.10;6.40;;;2.70;99.90;;;;;;5003713;28;20815;-75
2023/02/06 04:52:17;;;;;;;7.00;6.20;;;2.70;99.90;;;;;;5012570;28;20647;-75
2023/02/06 04:54:58;;;;;;;8.98;6.60;;;2.80;99.90;;;;;;5012165;28;20383;-76
2023/02/06 04:57:49;;;;;;;6.80;6.10;;;2.80;99.90;;;;;;4896701;28;20237;-76
2023/02/06 05:00:17;;;;;;;8.98;6.45;;;2.80;99.90;;;;;;4912150;28;20342;-76
2023/02/06 05:02:58;;;;;;;6.88;6.18;;;2.80;99.90;;;;;;4905703;28;20252;-76
2023/02/06 05:06:01;;;;;;;7.38;6.68;;;2.80;99.90;;;;;;4907518;28;20229;-76
2023/02/06 05:08:38;;;;;;;10.80;6.88;;;2.70;99.90;;;;;;4903252;28;20664;-76
2023/02/06 05:11:12;;;;;;;12.52;5.97;;;2.70;99.90;;;;;;4903576;28;20235;-76
2023/02/06 05:13:41;;;;;;;7.88;7.05;;;2.60;99.90;;;;;;4912973;28;20240;-76
2023/02/06 05:16:09;;;;;;;8.27;7.22;;;2.60;99.90;;;;;;4913486;28;20547;-76
2023/02/06 05:18:37;;;;;;;6.68;5.75;;;2.60;99.90;;;;;;4912928;28;20242;-75
2023/02/06 05:21:10;;;;;;;10.15;7.22;;;2.60;99.90;;;;;;4914921;28;20256;-76
2023/02/06 05:23:47;;;;;;;9.05;6.53;;;2.60;99.90;;;;;;4913781;28;20723;-76
2023/02/06 05:26:25;;;;;;;10.38;7.75;;;2.60;99.90;;;;;;4907860;28;20670;-76
2023/02/06 05:29:07;;;;;;;8.15;7.05;;;2.50;99.90;;;;;;4912334;28;20233;-76
2023/02/06 05:31:40;;;;;;;8.20;7.40;;;2.50;99.90;;;;;;4918334;28;20508;-76
2023/02/06 05:34:10;;;;;;;10.48;7.95;;;2.60;99.90;;;;;;4915934;28;20577;-76
2023/02/06 05:36:51;;;;;;;9.13;8.05;;;2.50;99.90;;;;;;4917314;28;20279;-76
2023/02/06 05:39:21;;;;;;;8.60;7.00;;;2.50;99.90;;;;;;4914344;28;20543;-76
2023/02/06 05:41:58;;;;;;;10.43;7.20;;;2.60;99.90;;;;;;4916327;28;20288;-76
2023/02/06 05:44:28;;;;;;;9.25;6.72;;;2.60;99.90;;;;;;4916218;28;20295;-76
2023/02/06 05:47:02;;;;;;;8.55;7.53;;;2.50;99.90;;;;;;4907267;28;20225;-76
2023/02/06 05:49:30;;;;;;;8.20;7.18;;;2.60;99.90;;;;;;4909441;28;20764;-76
2023/02/06 05:52:03;;;;;;;9.48;8.32;;;2.50;99.90;;;;;;4907223;28;20233;-76
2023/02/06 05:54:40;;;;;;;8.23;7.38;;;2.60;99.90;;;;;;4897451;28;20229;-76
2023/02/06 05:57:07;;;;;;;8.85;7.40;;;2.50;99.90;;;;;;4986370;28;20262;-76
2023/02/06 05:59:35;;;;;;;8.20;7.40;;;2.50;99.90;;;;;;4977098;28;20558;-76
2023/02/06 06:02:22;;;;;;;9.77;8.27;;;2.50;99.90;;;;;;5015847;28;20226;-76
2023/02/06 06:04:51;;;;;;;9.38;8.23;;;2.50;99.90;;;;;;5015511;28;20252;-77
2023/02/06 06:07:18;;;;;;;9.68;8.13;;;2.50;99.90;;;;;;5006318;28;20230;-76
2023/02/06 06:09:45;;;;;;;9.40;8.30;;;2.50;99.90;;;;;;5015510;28;20226;-76
2023/02/06 06:12:26;;;;;;;8.18;7.38;;;2.60;99.90;;;;;;5004279;28;20226;-76
2023/02/06 06:15:15;;;;;;;10.02;8.70;;;2.60;99.90;;;;;;5013565;28;20230;-76
2023/02/06 06:17:44;;;;;;;11.13;8.80;;;2.50;99.90;;;;;;4915098;28;20225;-76
2023/02/06 06:20:18;;;;;;;10.90;8.88;;;2.60;99.90;;;;;;4905513;28;20324;-76
2023/02/06 06:22:51;;;;;;;10.38;7.85;;;2.50;99.90;;;;;;4915112;28;20230;-75
2023/02/06 06:25:18;;;;;;;12.20;9.60;;;2.50;99.90;;;;;;4914949;28;20269;-75
2023/02/06 06:27:45;;;;;;;9.68;8.45;;;2.60;99.90;;;;;;4906674;28;20264;-75
2023/02/06 06:30:15;;;;;;;12.20;8.05;;;2.60;99.90;;;;;;4908649;28;20225;-75
2023/02/06 06:33:23;;;;;;;15.02;10.18;;;2.50;99.90;;;;;;4910704;28;20221;-75
2023/02/06 06:36:15;;;;;;;;;;;;;;;;;;;;;
2023/02/06 06:38:54;;;;;;;12.25;9.20;;;2.50;99.90;;;;;;4908972;28;20233;-76
2023/02/06 06:41:21;;;;;;;11.77;10.13;;;2.50;99.90;;;;;;4914492;28;20694;-76
2023/02/06 06:44:08;;;;;;;8.93;8.02;;;2.50;99.90;;;;;;4914843;28;20240;-76
2023/02/06 06:46:37;;;;;;;11.18;9.35;;;2.50;99.90;;;;;;4914483;28;20226;-76
2023/02/06 06:49:04;;;;;;;10.50;9.48;;;2.50;99.90;;;;;;4909727;28;20747;-76
2023/02/06 06:54:46;;;;;;;11.90;9.55;;;2.50;99.90;;;;;;4895284;28;20311;-76
2023/02/06 06:57:14;;;;;;;14.07;9.25;;;2.50;99.90;;;;;;4913524;28;20597;-76
2023/02/06 06:59:42;;;;;;;11.57;8.93;;;2.50;99.90;;;;;;4915426;28;20331;-76
2023/02/06 07:02:15;;;;;;;10.63;9.52;;;2.50;99.90;;;;;;4906292;28;20312;-76
2023/02/06 07:04:43;;;;;;;10.50;9.02;;;2.50;99.90;;;;;;4914680;28;20588;-76
2023/02/06 07:07:13;;;;;;;9.82;8.70;;;2.50;99.90;;;;;;4914443;28;20305;-75
2023/02/06 07:09:59;;;;;;;;;;;;;;;;;;;;;
2023/02/06 07:12:27;;;;;;;13.50;9.95;;;2.60;99.90;;;;;;4908987;28;20460;-77
2023/02/06 07:17:44;;;;;;;12.88;11.57;;;2.60;99.90;;;;;;4905691;28;20230;-76
2023/02/06 07:20:14;;;;;;;15.80;10.65;;;2.60;99.90;;;;;;4914303;28;20230;-75
2023/02/06 07:23:07;;;;;;;12.55;10.75;;;2.60;99.90;;;;;;4917257;28;20675;-76
2023/02/06 07:25:47;;;;;;;14.38;12.18;;;2.60;99.90;;;;;;4900048;28;20225;-76
2023/02/06 07:28:16;;;;;;;13.43;12.02;;;2.60;99.90;;;;;;4913881;28;20670;-76
2023/02/06 07:31:03;;;;;;;14.90;12.57;;;2.60;99.90;;;;;;4914371;28;20236;-76
2023/02/06 07:33:32;;;;;;;14.02;12.55;;;2.60;99.90;;;;;;4914376;28;20328;-76
2023/02/06 07:36:03;;;;;;;14.90;12.18;;;2.60;99.90;;;;;;4914162;28;20300;-76
2023/02/06 07:38:36;;;;;;;15.38;13.10;;;2.70;99.90;;;;;;4914848;28;20234;-76
2023/02/06 07:41:08;;;;;;;17.55;12.38;;;2.70;99.90;;;;;;4913692;28;20608;-76
2023/02/06 07:43:38;;;;;;;14.30;12.40;;;2.70;99.90;;;;;;4913710;28;20668;-76
2023/02/06 07:46:05;;;;;;;13.90;11.25;;;2.80;99.90;;;;;;4914104;28;20237;-76
2023/02/06 07:48:39;;;;;;;15.80;12.32;;;2.80;99.90;;;;;;4915444;28;20229;-78
2023/02/06 07:51:08;;;;;;;15.15;12.60;;;2.80;99.90;;;;;;4914145;28;21049;-76
2023/02/06 07:53:36;;;;;;;14.85;11.93;;;2.80;99.90;;;;;;4914147;28;20309;-76
2023/02/06 07:56:09;;;;;;;14.82;11.93;;;2.80;99.90;;;;;;4915049;28;20225;-76
2023/02/06 07:58:36;;;;;;;18.40;13.23;;;2.90;99.90;;;;;;4914958;28;20668;-76
2023/02/06 08:01:03;;;;;;;14.50;13.07;;;2.90;99.90;;;;;;4914712;28;20268;-76
2023/02/06 08:03:30;;;;;;;15.95;13.27;;;2.90;99.90;;;;;;4915180;28;20229;-76
2023/02/06 08:05:59;;;;;;;23.90;16.50;;;3.00;99.90;;;;;;4914249;28;20229;-77
2023/02/06 08:08:27;;;;;;;20.10;16.10;;;3.00;99.90;;;;;;4915303;28;20679;-77
2023/02/06 08:10:54;;;;;;;17.23;13.57;;;3.00;99.90;;;;;;4913806;28;20280;-76
2023/02/06 08:13:21;;;;;;;16.13;13.30;;;3.10;99.90;;;;;;4915173;28;20534;-77
2023/02/06 08:15:50;;;;;;;17.33;13.40;;;3.10;99.90;;;;;;4914553;28;20237;-77
2023/02/06 08:18:17;;;;;;;14.50;13.02;;;3.10;99.90;;;;;;5010526;28;20632;-77
2023/02/06 08:20:43;;;;;;;17.58;14.15;;;3.10;99.90;;;;;;5013752;28;20226;-79
2023/02/06 08:23:12;;;;;;;15.07;12.73;;;3.10;99.90;;;;;;5013587;28;20225;-77
2023/02/06 08:25:39;;;;;;;14.23;12.20;;;3.10;99.90;;;;;;5014337;28;20309;-78
2023/02/06 08:28:06;;;;;;;15.15;11.77;;;3.20;99.90;;;;;;5012408;28;20249;-77
2023/02/06 08:30:33;;;;;;;12.48;11.15;;;3.10;99.90;;;;;;5013585;28;20321;-79
2023/02/06 08:33:00;;;;;;;16.27;11.55;;;3.10;99.90;;;;;;5005112;28;20234;-76
2023/02/06 08:35:27;;;;;;;13.27;11.88;;;3.10;99.90;;;;;;5013724;28;20222;-76
2023/02/06 08:37:54;;;;;;;14.73;11.82;;;3.10;99.90;;;;;;5013800;28;20229;-79
2023/02/06 08:40:23;;;;;;;16.77;12.73;;;3.20;99.90;;;;;;5013685;28;20238;-79
2023/02/06 08:42:51;;;;;;;20.15;13.23;;;3.10;99.90;;;;;;5013683;28;20222;-79
2023/02/06 08:45:18;;;;;;;16.52;12.60;;;3.10;99.90;;;;;;5013404;28;20321;-78
2023/02/06 08:47:46;;;;;;;17.15;13.50;;;3.10;99.90;;;;;;5013085;28;20280;-79
2023/02/06 08:50:15;;;;;;;16.63;12.85;;;3.10;99.90;;;;;;5012788;28;20527;-78
2023/02/06 08:52:43;;;;;;;16.33;13.32;;;3.10;99.90;;;;;;5013497;28;20226;-76
2023/02/06 08:55:09;;;;;;;18.73;14.85;;;3.10;99.90;;;;;;5015181;28;20229;-79
2023/02/06 08:57:38;;;;;;;16.27;13.77;;;3.10;99.90;;;;;;5017310;28;20252;-78
2023/02/06 09:00:06;;;;;;;18.83;14.68;;;3.20;99.90;;;;;;5017028;28;20288;-76
2023/02/06 09:02:34;;;;;;;18.17;14.18;;;3.20;99.90;;;;;;5017052;28;20570;-75
2023/02/06 09:05:02;;;;;;;16.10;13.77;;;3.20;99.90;;;;;;5015881;28;20225;-78
2023/02/06 09:07:30;;;;;;;21.30;14.35;;;3.10;99.90;;;;;;5017926;28;20548;-79
2023/02/06 09:09:58;;;;;;;18.08;14.30;;;3.10;99.90;;;;;;5016534;28;20226;-78
2023/02/06 09:12:25;;;;;;;18.42;15.13;;;3.10;99.90;;;;;;5017613;28;20261;-79
2023/02/06 09:14:54;;;;;;;15.05;13.02;;;3.10;99.90;;;;;;5017581;28;20241;-79
2023/02/06 09:17:23;;;;;;;22.17;15.07;;;3.20;99.90;;;;;;5016579;28;20257;-76
2023/02/06 09:19:50;;;;;;;22.30;15.60;;;3.10;99.90;;;;;;5016893;28;20230;-76
2023/02/06 09:22:17;;;;;;;17.48;15.50;;;3.20;99.90;;;;;;5016519;28;20296;-79
2023/02/06 09:24:44;;;;;;;25.33;15.60;;;3.20;99.90;;;;;;5017126;28;20218;-76
2023/02/06 09:27:11;;;;;;;22.33;16.42;;;3.20;99.90;;;;;;5016238;28;20225;-76
2023/02/06 09:29:38;;;;;;;21.58;16.02;;;3.20;99.90;;;;;;5016466;28;20283;-76
2023/02/06 09:32:06;;;;;;;25.27;17.20;;;3.20;99.90;;;;;;5015758;28;20230;-76
2023/02/06 09:34:34;;;;;;;23.90;16.27;;;3.20;99.90;;;;;;5016239;28;20360;-76
2023/02/06 09:37:02;;;;;;;24.67;19.10;;;3.20;99.90;;;;;;5015967;28;20276;-76
2023/02/06 09:39:30;;;;;;;27.50;18.63;;;3.20;99.90;;;;;;5016380;28;20597;-79
2023/02/06 09:42:04;;;;;;;27.77;17.13;;;3.30;99.90;;;;;;5016528;28;20237;-79
2023/02/06 09:44:35;;;;;;;22.88;16.55;;;3.20;99.90;;;;;;5015729;28;20324;-79
2023/02/06 09:47:10;;;;;;;21.90;15.73;;;3.30;99.90;;;;;;5014619;28;20532;-76
2023/02/06 09:49:46;;;;;;;20.08;14.55;;;3.20;99.90;;;;;;5014866;28;20260;-76
2023/02/06 09:52:33;;;;;;;22.65;16.13;;;3.30;99.90;;;;;;5015762;28;20222;-76
2023/02/06 09:55:07;;;;;;;22.13;14.85;;;3.30;99.90;;;;;;5016031;28;20309;-78
2023/02/06 09:57:48;;;;;;;23.67;17.52;;;3.30;99.90;;;;;;5015487;28;20226;-76
2023/02/06 10:00:28;;;;;;;25.70;16.15;;;3.30;99.90;;;;;;5015467;28;20356;-76
2023/02/06 10:03:16;;;;;;;20.35;14.30;;;3.20;99.90;;;;;;5015826;28;20233;-75
2023/02/06 10:05:52;;;;;;;24.13;14.25;;;3.20;99.90;;;;;;4915400;28;20218;-76
2023/02/06 10:08:24;;;;;;;17.20;13.45;;;3.20;99.90;;;;;;4915413;28;20229;-77
2023/02/06 10:10:58;;;;;;;18.35;13.77;;;3.20;99.90;;;;;;4916465;28;20233;-77
2023/02/06 10:13:31;;;;;;;21.40;15.30;;;3.10;99.90;;;;;;4916697;28;20240;-76
2023/02/06 10:16:07;;;;;;;20.20;14.07;;;3.10;99.90;;;;;;4916201;28;20275;-76
2023/02/06 10:18:41;;;;;;;18.13;13.57;;;3.00;99.90;;;;;;4915483;28;20337;-76
2023/02/06 10:21:19;;;;;;;20.90;15.25;;;3.00;99.90;;;;;;4915758;28;20633;-76
2023/02/06 10:23:55;;;;;;;27.20;16.40;;;3.00;99.90;;;;;;4915747;28;20303;-76
2023/02/06 10:26:22;;;;;;;21.33;16.80;;;3.10;99.90;;;;;;4915519;28;20291;-77
2023/02/06 10:28:52;;;;;;;24.50;15.63;;;3.10;99.90;;;;;;4916249;28;20230;-76
2023/02/06 10:31:43;;;;;;;19.20;13.60;;;3.10;99.90;;;;;;4916123;28;20568;-77
2023/02/06 10:34:46;;;;;;;22.08;15.13;;;3.20;99.90;;;;;;4915935;28;20311;-80
2023/02/06 10:37:31;;;;;;;19.58;14.27;;;3.20;99.90;;;;;;4915475;28;20274;-80
2023/02/06 10:40:12;;;;;;;24.85;15.65;;;3.20;99.90;;;;;;4915849;28;20771;-81
2023/02/06 10:42:50;;;;;;;23.20;16.25;;;3.30;99.90;;;;;;4913963;28;20280;-80
2023/02/06 10:45:32;;;;;;;19.67;14.18;;;3.20;99.90;;;;;;4897539;28;20308;-80
2023/02/06 10:48:15;;;;;;;21.02;14.57;;;3.30;99.90;;;;;;4915381;28;20251;-77
2023/02/06 10:51:02;;;;;;;23.02;16.02;;;3.30;99.90;;;;;;4895249;28;20253;-77
2023/02/06 10:54:01;;;;;;;;;;;;;;;;;;;;;
2023/02/06 10:56:30;;;;;;;18.65;14.15;;;3.40;99.90;;;;;;4906115;28;20236;-77
2023/02/06 10:59:01;;;;;;;19.15;14.05;;;3.40;99.90;;;;;;4909456;28;20233;-75
2023/02/06 11:01:34;;;;;;;21.70;14.98;;;3.40;99.90;;;;;;4895769;28;20234;-80
2023/02/06 11:04:10;;;;;;;19.67;15.45;;;3.40;99.90;;;;;;4906815;28;20234;-80
2023/02/06 11:06:41;;;;;;;24.90;14.85;;;3.40;99.90;;;;;;4906084;28;20233;-80
2023/02/06 11:09:09;;;;;;;19.40;14.75;;;3.40;99.90;;;;;;4896566;28;20313;-80
2023/02/06 11:11:41;;;;;;;20.17;14.00;;;3.50;99.90;;;;;;4908920;28;20226;-80
2023/02/06 11:14:17;;;;;;;18.17;14.50;;;3.40;99.90;;;;;;4915438;28;20342;-77
2023/02/06 11:16:46;;;;;;;19.27;13.38;;;3.40;99.90;;;;;;4899897;28;20241;-77
2023/02/06 11:19:25;;;;;;;20.30;14.55;;;3.40;99.90;;;;;;4901713;28;20296;-77
2023/02/06 11:21:56;;;;;;;22.27;14.65;;;3.40;99.90;;;;;;4914552;28;20416;-77
2023/02/06 11:24:25;;;;;;;21.98;14.85;;;3.40;99.90;;;;;;4906733;28;20623;-77
2023/02/06 11:26:56;;;;;;;21.98;15.23;;;3.30;99.90;;;;;;4914476;28;20229;-77
2023/02/06 11:29:25;;;;;;;19.83;14.77;;;3.30;99.90;;;;;;4915887;28;20689;-80
2023/02/06 11:31:55;;;;;;;26.55;16.00;;;3.30;99.90;;;;;;4915891;28;22912;-77
2023/02/06 11:34:29;;;;;;;30.20;15.80;;;3.30;99.90;;;;;;4914447;28;20242;-77
2023/02/06 11:37:00;;;;;;;23.00;15.57;;;3.30;99.90;;;;;;4903789;28;20230;-77
2023/02/06 11:39:30;;;;;;;26.58;15.07;;;3.30;99.90;;;;;;4913489;28;20233;-77
2023/02/06 11:42:00;;;;;;;26.13;15.85;;;3.20;99.90;;;;;;4923757;29;20252;-77
2023/02/06 11:44:29;;;;;;;20.58;14.23;;;3.20;99.90;;;;;;4933165;29;20240;-77
2023/02/06 11:46:57;;;;;;;22.60;15.20;;;3.10;99.90;;;;;;4933226;28;20237;-77
2023/02/06 11:49:27;;;;;;;18.92;14.93;;;3.10;99.90;;;;;;4922260;29;20344;-77
2023/02/06 11:51:59;;;;;;;18.65;13.95;;;3.10;99.90;;;;;;4913755;28;20236;-80
2023/02/06 11:54:32;;;;;;;26.45;16.23;;;3.10;99.90;;;;;;4914104;28;20256;-77
2023/02/06 12:03:53;;;;;;;23.02;16.73;;;3.10;99.90;;;;;;4925417;28;20225;-77
2023/02/06 12:15:26;;;;;;;23.83;15.77;;;3.00;99.90;;;;;;4859510;28;20234;-77
2023/02/06 12:18:00;;;;;;;21.45;15.10;;;3.10;99.90;;;;;;4895576;28;20277;-80
2023/02/06 12:20:33;;;;;;;22.20;15.55;;;3.10;99.90;;;;;;4885592;28;20249;-79
2023/02/06 12:23:06;;;;;;;20.25;15.27;;;3.10;99.90;;;;;;4886521;28;20676;-80
2023/02/06 12:25:46;;;;;;;27.13;16.50;;;3.10;99.90;;;;;;4894491;28;20261;-80
2023/02/06 12:28:20;;;;;;;26.00;16.10;;;3.00;99.90;;;;;;4894295;28;20288;-80
2023/02/06 12:30:51;;;;;;;21.48;16.25;;;3.00;99.90;;;;;;4894671;28;20317;-80
2023/02/06 12:33:24;;;;;;;20.75;15.15;;;3.00;99.90;;;;;;4886712;28;20291;-77
2023/02/06 12:35:56;;;;;;;25.45;16.52;;;3.10;99.90;;;;;;4894699;28;20241;-77
2023/02/06 12:38:30;;;;;;;25.15;16.90;;;3.10;99.90;;;;;;4886380;28;20237;-78
2023/02/06 12:41:18;;;;;;;25.02;17.73;;;3.10;99.90;;;;;;4893975;28;20877;-76
2023/02/06 12:43:53;;;;;;;24.60;16.15;;;3.20;99.90;;;;;;4886852;28;20276;-79
2023/02/06 12:46:23;;;;;;;28.73;17.45;;;3.30;99.90;;;;;;4894792;28;20694;-79
2023/02/06 12:48:55;;;;;;;26.75;17.95;;;3.20;99.90;;;;;;4895237;28;20230;-79
2023/02/06 12:51:26;;;;;;;25.08;15.65;;;3.30;99.90;;;;;;4912185;28;20237;-76
2023/02/06 12:54:01;;;;;;;26.52;16.13;;;3.20;99.90;;;;;;4913191;28;20505;-76
2023/02/06 12:56:34;;;;;;;23.25;17.63;;;3.30;99.90;;;;;;4913042;28;20233;-77
2023/02/06 12:59:20;;;;;;;21.55;15.75;;;3.30;99.90;;;;;;4913192;28;20225;-77
2023/02/06 13:01:59;;;;;;;22.23;17.23;;;3.30;99.90;;;;;;4904184;28;20687;-77
2023/02/06 13:04:31;;;;;;;26.58;18.17;;;3.30;99.90;;;;;;4913912;28;20233;-76
2023/02/06 13:07:07;;;;;;;20.00;15.02;;;3.40;99.90;;;;;;4913280;28;20244;-80
2023/02/06 13:09:37;;;;;;;20.00;15.32;;;3.50;99.90;;;;;;4912929;28;20315;-76
2023/02/06 13:12:14;;;;;;;24.27;16.73;;;3.50;99.90;;;;;;4930084;28;20220;-76
2023/02/06 13:14:50;;;;;;;20.92;15.90;;;3.50;99.90;;;;;;4931900;28;20246;-75
2023/02/06 13:17:27;;;;;;;18.02;14.27;;;3.50;99.90;;;;;;4932614;28;20252;-76
2023/02/06 13:20:05;;;;;;;24.80;16.73;;;3.50;99.90;;;;;;4935880;28;20756;-76
2023/02/06 13:22:45;;;;;;;19.10;15.35;;;3.40;99.90;;;;;;4922486;28;20263;-79
2023/02/06 13:25:52;;;;;;;20.02;15.00;;;3.40;99.90;;;;;;4932541;28;20224;-79
2023/02/06 13:28:43;;;;;;;20.77;14.18;;;3.50;99.90;;;;;;4967716;28;20322;-76
2023/02/06 13:32:10;;;;;;;22.98;16.60;;;3.50;99.90;;;;;;4951151;28;20229;-76
2023/02/06 13:34:37;;;;;;;20.52;15.15;;;3.60;99.90;;;;;;4933975;28;20225;-79
2023/02/06 13:37:20;;;;;;;19.27;15.15;;;3.60;99.90;;;;;;4932405;28;20678;-79